sensor_id;sensor_type;location;lat;lon;timestamp;pressure;altitude;pressure_sealevel;temperature;humidity
68988;BME280;56038;46.080;11.116;2022-09-23T00:00:26;99887.69;;;14.63;57.85
68988;BME280;56038;46.080;11.116;2022-09-23T00:05:31;99880.22;;;14.73;57.70
68988;BME280;56038;46.080;11.116;2022-09-23T00:10:35;99889.69;;;14.58;58.16
68988;BME280;56038;46.080;11.116;2022-09-23T00:15:37;99875.69;;;14.58;57.45
68988;BME280;56038;46.080;11.116;2022-09-23T00:20:40;99873.69;;;14.63;57.01
68988;BME280;56038;46.080;11.116;2022-09-23T00:25:41;99875.38;;;14.64;58.33
68988;BME280;56038;46.080;11.116;2022-09-23T00:30:43;99873.69;;;14.63;58.51
68988;BME280;56038;46.080;11.116;2022-09-23T00:35:46;99870.44;;;14.58;59.28
68988;BME280;56038;46.080;11.116;2022-09-23T00:40:47;99866.44;;;14.68;59.06
68988;BME280;56038;46.080;11.116;2022-09-23T00:45:49;99870.63;;;14.72;57.96
68988;BME280;56038;46.080;11.116;2022-09-23T00:50:52;99863.19;;;14.80;57.96
68988;BME280;56038;46.080;11.116;2022-09-23T00:55:55;99860.25;;;14.69;58.85
68988;BME280;56038;46.080;11.116;2022-09-23T01:00:57;99857.59;;;14.52;59.74
68988;BME280;56038;46.080;11.116;2022-09-23T01:06:00;99854.50;;;14.61;59.71
68988;BME280;56038;46.080;11.116;2022-09-23T01:11:05;99854.66;;;14.58;58.57
68988;BME280;56038;46.080;11.116;2022-09-23T01:16:10;99848.56;;;14.57;59.00
68988;BME280;56038;46.080;11.116;2022-09-23T01:26:39;99841.59;;;14.56;57.93
68988;BME280;56038;46.080;11.116;2022-09-23T01:31:49;99841.25;;;14.45;59.02
68988;BME280;56038;46.080;11.116;2022-09-23T01:36:53;99840.41;;;14.26;59.19
68988;BME280;56038;46.080;11.116;2022-09-23T01:41:57;99840.56;;;14.23;59.38
68988;BME280;56038;46.080;11.116;2022-09-23T01:47:03;99837.28;;;14.18;59.35
68988;BME280;56038;46.080;11.116;2022-09-23T01:52:10;99835.50;;;14.18;59.23
68988;BME280;56038;46.080;11.116;2022-09-23T01:57:15;99837.00;;;14.24;59.88
68988;BME280;56038;46.080;11.116;2022-09-23T02:02:21;99843.38;;;14.37;59.37
68988;BME280;56038;46.080;11.116;2022-09-23T02:07:28;99828.28;;;14.23;59.94
68988;BME280;56038;46.080;11.116;2022-09-23T02:12:32;99830.66;;;14.28;60.27
68988;BME280;56038;46.080;11.116;2022-09-23T02:17:44;99834.66;;;14.18;61.05
68988;BME280;56038;46.080;11.116;2022-09-23T02:22:50;99829.63;;;14.13;60.68
68988;BME280;56038;46.080;11.116;2022-09-23T02:27:55;99824.00;;;14.02;60.39
68988;BME280;56038;46.080;11.116;2022-09-23T02:33:02;99825.22;;;14.14;60.42
68988;BME280;56038;46.080;11.116;2022-09-23T02:38:09;99827.84;;;14.14;60.33
68988;BME280;56038;46.080;11.116;2022-09-23T02:43:13;99815.28;;;14.20;59.84
68988;BME280;56038;46.080;11.116;2022-09-23T02:48:19;99815.72;;;14.11;60.52
68988;BME280;56038;46.080;11.116;2022-09-23T02:53:22;99818.84;;;14.00;61.75
68988;BME280;56038;46.080;11.116;2022-09-23T02:58:24;99824.59;;;14.08;61.08
68988;BME280;56038;46.080;11.116;2022-09-23T03:03:33;99822.13;;;14.05;61.38
68988;BME280;56038;46.080;11.116;2022-09-23T03:08:39;99816.78;;;14.07;61.22
68988;BME280;56038;46.080;11.116;2022-09-23T03:13:50;99817.56;;;14.09;60.65
68988;BME280;56038;46.080;11.116;2022-09-23T03:18:56;99815.09;;;14.06;61.22
68988;BME280;56038;46.080;11.116;2022-09-23T03:24:01;99817.47;;;14.29;60.81
68988;BME280;56038;46.080;11.116;2022-09-23T03:29:06;99818.56;;;14.06;61.15
68988;BME280;56038;46.080;11.116;2022-09-23T03:34:12;99816.13;;;14.02;61.90
68988;BME280;56038;46.080;11.116;2022-09-23T03:39:17;99814.72;;;13.95;61.74
68988;BME280;56038;46.080;11.116;2022-09-23T03:44:23;99818.06;;;13.98;61.72
68988;BME280;56038;46.080;11.116;2022-09-23T03:49:31;99813.50;;;14.02;62.04
68988;BME280;56038;46.080;11.116;2022-09-23T03:54:34;99811.03;;;13.99;62.72
68988;BME280;56038;46.080;11.116;2022-09-23T03:59:35;99808.00;;;14.44;61.04
68988;BME280;56038;46.080;11.116;2022-09-23T04:04:38;99812.69;;;14.37;61.45
68988;BME280;56038;46.080;11.116;2022-09-23T04:09:40;99813.91;;;14.30;60.21
68988;BME280;56038;46.080;11.116;2022-09-23T04:14:42;99805.88;;;14.70;58.44
68988;BME280;56038;46.080;11.116;2022-09-23T04:19:45;99805.41;;;14.25;59.72
68988;BME280;56038;46.080;11.116;2022-09-23T04:24:46;99802.19;;;14.19;60.41
68988;BME280;56038;46.080;11.116;2022-09-23T04:29:48;99804.44;;;13.90;61.48
68988;BME280;56038;46.080;11.116;2022-09-23T04:34:51;99798.00;;;13.78;62.16
68988;BME280;56038;46.080;11.116;2022-09-23T04:39:52;99792.66;;;13.61;62.36
68988;BME280;56038;46.080;11.116;2022-09-23T04:44:54;99805.66;;;13.64;61.98
68988;BME280;56038;46.080;11.116;2022-09-23T04:49:58;99789.59;;;13.70;61.57
68988;BME280;56038;46.080;11.116;2022-09-23T04:54:59;99797.38;;;13.73;60.69
68988;BME280;56038;46.080;11.116;2022-09-23T05:00:01;99804.66;;;13.86;60.69
68988;BME280;56038;46.080;11.116;2022-09-23T05:05:05;99804.97;;;14.16;59.30
68988;BME280;56038;46.080;11.116;2022-09-23T05:10:06;99802.59;;;13.92;59.09
68988;BME280;56038;46.080;11.116;2022-09-23T05:15:08;99812.59;;;13.84;59.69
68988;BME280;56038;46.080;11.116;2022-09-23T05:20:11;99805.00;;;13.59;60.59
68988;BME280;56038;46.080;11.116;2022-09-23T05:25:12;99809.88;;;13.48;61.11
68988;BME280;56038;46.080;11.116;2022-09-23T05:30:14;99812.75;;;13.62;61.03
68988;BME280;56038;46.080;11.116;2022-09-23T05:35:17;99823.66;;;13.53;60.64
68988;BME280;56038;46.080;11.116;2022-09-23T05:40:18;99818.03;;;13.42;61.00
68988;BME280;56038;46.080;11.116;2022-09-23T05:45:20;99819.00;;;13.78;59.38
68988;BME280;56038;46.080;11.116;2022-09-23T05:50:22;99822.78;;;14.47;56.52
68988;BME280;56038;46.080;11.116;2022-09-23T05:55:24;99830.22;;;14.56;56.28
68988;BME280;56038;46.080;11.116;2022-09-23T06:00:26;99821.78;;;14.66;56.64
68988;BME280;56038;46.080;11.116;2022-09-23T06:05:29;99824.06;;;14.74;56.59
68988;BME280;56038;46.080;11.116;2022-09-23T06:10:35;99827.97;;;14.83;56.03
68988;BME280;56038;46.080;11.116;2022-09-23T06:15:37;99820.81;;;14.86;56.36
68988;BME280;56038;46.080;11.116;2022-09-23T06:20:40;99831.34;;;14.86;56.40
68988;BME280;56038;46.080;11.116;2022-09-23T06:25:42;99821.50;;;14.90;56.64
68988;BME280;56038;46.080;11.116;2022-09-23T06:30:43;99824.81;;;14.93;55.89
68988;BME280;56038;46.080;11.116;2022-09-23T06:35:46;99826.59;;;14.58;56.89
68988;BME280;56038;46.080;11.116;2022-09-23T06:40:49;99827.78;;;14.87;56.70
68988;BME280;56038;46.080;11.116;2022-09-23T06:45:51;99817.31;;;15.20;56.30
68988;BME280;56038;46.080;11.116;2022-09-23T06:50:57;99831.00;;;14.58;58.43
68988;BME280;56038;46.080;11.116;2022-09-23T06:56:03;99812.28;;;14.64;57.97
68988;BME280;56038;46.080;11.116;2022-09-23T07:01:06;99817.16;;;14.72;58.08
68988;BME280;56038;46.080;11.116;2022-09-23T07:06:10;99819.03;;;14.87;57.93
68988;BME280;56038;46.080;11.116;2022-09-23T07:11:12;99811.34;;;15.17;56.50
68988;BME280;56038;46.080;11.116;2022-09-23T07:16:14;99818.31;;;15.51;55.78
68988;BME280;56038;46.080;11.116;2022-09-23T07:21:18;99818.84;;;15.57;54.19
68988;BME280;56038;46.080;11.116;2022-09-23T07:26:20;99823.97;;;15.61;54.55
68988;BME280;56038;46.080;11.116;2022-09-23T07:31:22;99825.28;;;15.52;54.88
68988;BME280;56038;46.080;11.116;2022-09-23T07:36:26;99826.13;;;15.70;54.40
68988;BME280;56038;46.080;11.116;2022-09-23T07:41:31;99822.47;;;15.72;54.20
68988;BME280;56038;46.080;11.116;2022-09-23T07:46:34;99825.28;;;15.85;53.67
68988;BME280;56038;46.080;11.116;2022-09-23T07:51:39;99829.97;;;15.80;54.14
68988;BME280;56038;46.080;11.116;2022-09-23T07:56:41;99823.88;;;15.95;52.93
68988;BME280;56038;46.080;11.116;2022-09-23T08:01:45;99824.28;;;16.03;52.93
68988;BME280;56038;46.080;11.116;2022-09-23T08:06:50;99822.91;;;16.28;51.83
68988;BME280;56038;46.080;11.116;2022-09-23T08:11:52;99821.97;;;16.44;51.49
68988;BME280;56038;46.080;11.116;2022-09-23T08:16:54;99815.81;;;16.60;51.08
68988;BME280;56038;46.080;11.116;2022-09-23T08:21:57;99815.09;;;16.72;50.84
68988;BME280;56038;46.080;11.116;2022-09-23T08:26:59;99814.94;;;17.05;49.08
68988;BME280;56038;46.080;11.116;2022-09-23T08:32:01;99804.78;;;17.27;48.01
68988;BME280;56038;46.080;11.116;2022-09-23T08:37:08;99802.41;;;17.51;48.26
68988;BME280;56038;46.080;11.116;2022-09-23T08:42:16;99795.19;;;17.69;47.06
68988;BME280;56038;46.080;11.116;2022-09-23T08:47:23;99800.47;;;18.10;46.42
68988;BME280;56038;46.080;11.116;2022-09-23T08:52:32;99800.91;;;18.31;44.88
68988;BME280;56038;46.080;11.116;2022-09-23T08:57:41;99801.91;;;18.16;45.08
68988;BME280;56038;46.080;11.116;2022-09-23T09:02:46;99785.63;;;18.62;44.43
68988;BME280;56038;46.080;11.116;2022-09-23T09:07:50;99794.84;;;18.83;43.58
68988;BME280;56038;46.080;11.116;2022-09-23T09:12:59;99784.97;;;18.72;44.73
68988;BME280;56038;46.080;11.116;2022-09-23T09:18:04;99776.53;;;19.43;41.92
68988;BME280;56038;46.080;11.116;2022-09-23T09:23:17;99764.03;;;19.58;42.23
68988;BME280;56038;46.080;11.116;2022-09-23T09:28:23;99766.03;;;20.04;41.56
68988;BME280;56038;46.080;11.116;2022-09-23T09:33:31;99758.81;;;20.06;41.31
68988;BME280;56038;46.080;11.116;2022-09-23T09:38:38;99756.94;;;19.21;43.23
68988;BME280;56038;46.080;11.116;2022-09-23T09:43:40;99754.94;;;18.59;44.96
68988;BME280;56038;46.080;11.116;2022-09-23T09:48:49;99745.94;;;18.62;44.96
68988;BME280;56038;46.080;11.116;2022-09-23T09:54:15;99740.75;;;19.00;44.55
68988;BME280;56038;46.080;11.116;2022-09-23T09:59:23;99738.50;;;19.32;44.08
68988;BME280;56038;46.080;11.116;2022-09-23T10:04:32;99733.31;;;18.92;44.10
68988;BME280;56038;46.080;11.116;2022-09-23T10:09:39;99734.78;;;21.13;39.87
68988;BME280;56038;46.080;11.116;2022-09-23T10:14:42;99728.50;;;22.56;36.53
68988;BME280;56038;46.080;11.116;2022-09-23T10:19:46;99723.50;;;22.42;35.98
68988;BME280;56038;46.080;11.116;2022-09-23T10:24:52;99717.38;;;22.30;36.27
68988;BME280;56038;46.080;11.116;2022-09-23T10:29:56;99712.06;;;23.44;33.96
68988;BME280;56038;46.080;11.116;2022-09-23T10:35:11;99707.94;;;23.61;32.93
68988;BME280;56038;46.080;11.116;2022-09-23T10:40:18;99701.78;;;23.70;33.26
68988;BME280;56038;46.080;11.116;2022-09-23T10:45:38;99690.16;;;24.77;32.27
68988;BME280;56038;46.080;11.116;2022-09-23T10:50:58;99690.69;;;25.55;29.65
68988;BME280;56038;46.080;11.116;2022-09-23T10:56:13;99688.88;;;24.72;30.40
68988;BME280;56038;46.080;11.116;2022-09-23T11:01:27;99676.84;;;25.42;30.57
68988;BME280;56038;46.080;11.116;2022-09-23T11:06:33;99673.75;;;26.27;29.20
68988;BME280;56038;46.080;11.116;2022-09-23T11:11:48;99668.50;;;26.36;28.18
68988;BME280;56038;46.080;11.116;2022-09-23T11:17:19;99656.59;;;24.93;29.85
68988;BME280;56038;46.080;11.116;2022-09-23T11:22:41;99649.50;;;23.18;32.22
68988;BME280;56038;46.080;11.116;2022-09-23T11:38:42;99616.78;;;24.62;31.21
68988;BME280;56038;46.080;11.116;2022-09-23T11:43:50;99609.34;;;25.30;29.84
68988;BME280;56038;46.080;11.116;2022-09-23T11:48:57;99602.59;;;26.25;27.55
68988;BME280;56038;46.080;11.116;2022-09-23T11:54:10;99597.50;;;25.05;27.47
68988;BME280;56038;46.080;11.116;2022-09-23T11:59:20;99591.56;;;23.79;29.34
68988;BME280;56038;46.080;11.116;2022-09-23T12:04:30;99572.66;;;25.68;27.82
68988;BME280;56038;46.080;11.116;2022-09-23T12:09:36;99562.97;;;26.54;25.55
68988;BME280;56038;46.080;11.116;2022-09-23T12:14:51;99551.22;;;25.86;27.11
68988;BME280;56038;46.080;11.116;2022-09-23T12:25:32;99542.13;;;27.08;26.56
68988;BME280;56038;46.080;11.116;2022-09-23T12:30:38;99533.19;;;27.91;24.49
68988;BME280;56038;46.080;11.116;2022-09-23T12:35:42;99519.91;;;28.14;24.74
68988;BME280;56038;46.080;11.116;2022-09-23T12:40:46;99513.19;;;28.18;25.45
68988;BME280;56038;46.080;11.116;2022-09-23T12:45:50;99508.06;;;28.63;24.18
68988;BME280;56038;46.080;11.116;2022-09-23T12:50:55;99500.06;;;27.25;25.32
68988;BME280;56038;46.080;11.116;2022-09-23T12:56:00;99487.72;;;27.97;24.69
68988;BME280;56038;46.080;11.116;2022-09-23T13:01:08;99485.44;;;26.61;24.71
68988;BME280;56038;46.080;11.116;2022-09-23T13:06:17;99477.28;;;26.71;26.20
68988;BME280;56038;46.080;11.116;2022-09-23T13:11:36;99471.44;;;27.34;25.46
68988;BME280;56038;46.080;11.116;2022-09-23T13:16:43;99470.13;;;26.19;26.62
68988;BME280;56038;46.080;11.116;2022-09-23T13:22:04;99463.38;;;27.42;26.00
68988;BME280;56038;46.080;11.116;2022-09-23T13:27:17;99456.34;;;27.49;26.72
68988;BME280;56038;46.080;11.116;2022-09-23T13:32:26;99456.47;;;28.29;24.19
68988;BME280;56038;46.080;11.116;2022-09-23T13:37:37;99448.63;;;30.33;23.24
68988;BME280;56038;46.080;11.116;2022-09-23T13:42:40;99434.81;;;31.09;20.68
68988;BME280;56038;46.080;11.116;2022-09-23T13:47:44;99433.41;;;31.77;20.00
68988;BME280;56038;46.080;11.116;2022-09-23T13:52:51;99422.44;;;31.36;20.15
68988;BME280;56038;46.080;11.116;2022-09-23T13:58:01;99414.84;;;32.30;20.02
68988;BME280;56038;46.080;11.116;2022-09-23T14:03:17;99408.25;;;29.96;22.10
68988;BME280;56038;46.080;11.116;2022-09-23T14:08:19;99400.06;;;28.04;24.43
68988;BME280;56038;46.080;11.116;2022-09-23T14:13:23;99393.84;;;26.58;26.50
68988;BME280;56038;46.080;11.116;2022-09-23T14:18:32;99394.78;;;24.83;28.83
68988;BME280;56038;46.080;11.116;2022-09-23T14:23:34;99398.88;;;24.60;29.27
68988;BME280;56038;46.080;11.116;2022-09-23T14:28:36;99392.38;;;23.60;31.29
68988;BME280;56038;46.080;11.116;2022-09-23T14:33:40;99395.06;;;23.60;31.51
68988;BME280;56038;46.080;11.116;2022-09-23T14:38:42;99383.38;;;22.65;32.60
68988;BME280;56038;46.080;11.116;2022-09-23T14:43:55;99390.00;;;22.21;33.73
68988;BME280;56038;46.080;11.116;2022-09-23T14:49:04;99381.78;;;22.03;34.32
68988;BME280;56038;46.080;11.116;2022-09-23T14:54:28;99380.03;;;21.92;34.65
68988;BME280;56038;46.080;11.116;2022-09-23T14:59:33;99371.34;;;21.60;35.31
68988;BME280;56038;46.080;11.116;2022-09-23T15:04:37;99377.97;;;21.44;35.52
68988;BME280;56038;46.080;11.116;2022-09-23T15:09:39;99379.47;;;21.05;36.69
68988;BME280;56038;46.080;11.116;2022-09-23T15:14:47;99380.31;;;20.85;37.65
68988;BME280;56038;46.080;11.116;2022-09-23T15:19:54;99380.22;;;20.64;37.84
68988;BME280;56038;46.080;11.116;2022-09-23T15:25:10;99379.34;;;20.75;37.78
68988;BME280;56038;46.080;11.116;2022-09-23T15:30:16;99387.56;;;20.83;37.76
68988;BME280;56038;46.080;11.116;2022-09-23T15:35:21;99400.06;;;20.38;38.95
68988;BME280;56038;46.080;11.116;2022-09-23T15:40:26;99393.72;;;20.72;38.56
68988;BME280;56038;46.080;11.116;2022-09-23T15:45:31;99385.50;;;20.75;38.13
68988;BME280;56038;46.080;11.116;2022-09-23T15:50:36;99386.03;;;20.69;38.38
68988;BME280;56038;46.080;11.116;2022-09-23T15:55:38;99393.06;;;20.48;38.30
68988;BME280;56038;46.080;11.116;2022-09-23T16:00:40;99381.16;;;20.09;39.48
68988;BME280;56038;46.080;11.116;2022-09-23T16:05:45;99387.38;;;19.63;40.70
68988;BME280;56038;46.080;11.116;2022-09-23T16:10:48;99381.28;;;19.38;41.34
68988;BME280;56038;46.080;11.116;2022-09-23T16:15:50;99385.69;;;19.15;42.19
68988;BME280;56038;46.080;11.116;2022-09-23T16:20:53;99392.59;;;19.05;42.76
68988;BME280;56038;46.080;11.116;2022-09-23T16:25:57;99385.38;;;19.07;42.21
68988;BME280;56038;46.080;11.116;2022-09-23T16:30:59;99382.84;;;18.95;42.76
68988;BME280;56038;46.080;11.116;2022-09-23T16:36:02;99385.47;;;18.71;43.06
68988;BME280;56038;46.080;11.116;2022-09-23T16:41:04;99390.31;;;18.77;43.16
68988;BME280;56038;46.080;11.116;2022-09-23T16:46:06;99401.34;;;18.71;43.63
68988;BME280;56038;46.080;11.116;2022-09-23T16:51:13;99404.13;;;18.56;43.63
68988;BME280;56038;46.080;11.116;2022-09-23T16:56:16;99409.88;;;18.63;43.65
68988;BME280;56038;46.080;11.116;2022-09-23T17:01:20;99416.88;;;18.75;43.56
68988;BME280;56038;46.080;11.116;2022-09-23T17:06:43;99413.63;;;18.72;43.19
68988;BME280;56038;46.080;11.116;2022-09-23T17:11:45;99416.84;;;18.64;43.10
68988;BME280;56038;46.080;11.116;2022-09-23T17:16:49;99423.84;;;18.52;43.74
68988;BME280;56038;46.080;11.116;2022-09-23T17:21:53;99421.56;;;18.35;44.16
68988;BME280;56038;46.080;11.116;2022-09-23T17:26:54;99429.28;;;18.25;44.43
68988;BME280;56038;46.080;11.116;2022-09-23T17:31:56;99435.53;;;18.24;44.65
68988;BME280;56038;46.080;11.116;2022-09-23T17:36:59;99438.09;;;18.01;44.96
68988;BME280;56038;46.080;11.116;2022-09-23T17:42:02;99439.75;;;18.14;45.03
68988;BME280;56038;46.080;11.116;2022-09-23T17:47:03;99449.53;;;17.88;45.49
68988;BME280;56038;46.080;11.116;2022-09-23T17:52:07;99454.06;;;17.86;45.76
68988;BME280;56038;46.080;11.116;2022-09-23T17:57:09;99445.28;;;17.99;45.38
68988;BME280;56038;46.080;11.116;2022-09-23T18:02:11;99461.69;;;18.04;45.47
68988;BME280;56038;46.080;11.116;2022-09-23T18:07:14;99467.06;;;18.15;45.43
68988;BME280;56038;46.080;11.116;2022-09-23T18:12:16;99466.41;;;17.99;45.30
68988;BME280;56038;46.080;11.116;2022-09-23T18:17:17;99464.72;;;17.98;45.18
68988;BME280;56038;46.080;11.116;2022-09-23T18:22:20;99468.88;;;18.02;45.23
68988;BME280;56038;46.080;11.116;2022-09-23T18:27:22;99473.28;;;18.14;45.06
68988;BME280;56038;46.080;11.116;2022-09-23T18:32:24;99480.69;;;18.09;45.19
68988;BME280;56038;46.080;11.116;2022-09-23T18:37:27;99480.06;;;17.92;45.38
68988;BME280;56038;46.080;11.116;2022-09-23T18:42:29;99470.38;;;17.53;46.10
68988;BME280;56038;46.080;11.116;2022-09-23T18:47:31;99475.50;;;17.69;45.85
68988;BME280;56038;46.080;11.116;2022-09-23T18:52:51;99476.50;;;17.54;46.55
68988;BME280;56038;46.080;11.116;2022-09-23T18:57:53;99479.81;;;17.30;47.41
68988;BME280;56038;46.080;11.116;2022-09-23T19:02:55;99489.78;;;17.40;46.88
68988;BME280;56038;46.080;11.116;2022-09-23T19:07:59;99499.53;;;17.52;46.94
68988;BME280;56038;46.080;11.116;2022-09-23T19:13:01;99498.25;;;17.45;47.27
68988;BME280;56038;46.080;11.116;2022-09-23T19:18:03;99498.03;;;17.48;47.48
68988;BME280;56038;46.080;11.116;2022-09-23T19:23:06;99499.09;;;17.45;47.82
68988;BME280;56038;46.080;11.116;2022-09-23T19:28:08;99503.66;;;17.56;47.88
68988;BME280;56038;46.080;11.116;2022-09-23T19:33:10;99510.75;;;17.55;47.33
68988;BME280;56038;46.080;11.116;2022-09-23T19:38:14;99505.00;;;17.49;47.31
68988;BME280;56038;46.080;11.116;2022-09-23T19:43:16;99504.03;;;17.37;47.73
68988;BME280;56038;46.080;11.116;2022-09-23T19:48:20;99504.69;;;17.41;48.06
68988;BME280;56038;46.080;11.116;2022-09-23T19:53:24;99495.13;;;17.25;48.56
68988;BME280;56038;46.080;11.116;2022-09-23T19:58:26;99504.69;;;17.14;49.83
68988;BME280;56038;46.080;11.116;2022-09-23T20:03:27;99492.34;;;17.14;49.97
68988;BME280;56038;46.080;11.116;2022-09-23T20:08:33;99492.03;;;16.92;50.28
68988;BME280;56038;46.080;11.116;2022-09-23T20:13:36;99486.50;;;16.82;50.82
68988;BME280;56038;46.080;11.116;2022-09-23T20:18:39;99483.00;;;16.82;51.29
68988;BME280;56038;46.080;11.116;2022-09-23T20:23:43;99493.34;;;16.85;50.63
68988;BME280;56038;46.080;11.116;2022-09-23T20:28:45;99484.09;;;17.06;50.58
68988;BME280;56038;46.080;11.116;2022-09-23T20:33:49;99501.41;;;17.10;50.67
68988;BME280;56038;46.080;11.116;2022-09-23T20:38:53;99495.97;;;16.99;51.27
68988;BME280;56038;46.080;11.116;2022-09-23T20:43:56;99513.53;;;16.71;52.03
68988;BME280;56038;46.080;11.116;2022-09-23T20:48:59;99514.94;;;16.63;51.71
68988;BME280;56038;46.080;11.116;2022-09-23T20:54:02;99517.19;;;16.55;51.97
68988;BME280;56038;46.080;11.116;2022-09-23T20:59:04;99515.31;;;16.57;51.57
68988;BME280;56038;46.080;11.116;2022-09-23T21:04:06;99512.31;;;16.63;52.44
68988;BME280;56038;46.080;11.116;2022-09-23T21:09:10;99524.84;;;16.59;52.54
68988;BME280;56038;46.080;11.116;2022-09-23T21:14:12;99513.47;;;16.59;52.42
68988;BME280;56038;46.080;11.116;2022-09-23T21:19:14;99521.28;;;16.60;52.60
68988;BME280;56038;46.080;11.116;2022-09-23T21:24:17;99512.41;;;16.61;52.57
68988;BME280;56038;46.080;11.116;2022-09-23T21:29:19;99517.03;;;16.58;52.91
68988;BME280;56038;46.080;11.116;2022-09-23T21:34:21;99517.03;;;16.58;52.40
68988;BME280;56038;46.080;11.116;2022-09-23T21:39:26;99511.09;;;16.54;53.33
68988;BME280;56038;46.080;11.116;2022-09-23T21:44:28;99519.38;;;16.48;53.28
68988;BME280;56038;46.080;11.116;2022-09-23T21:49:30;99521.09;;;16.49;53.25
68988;BME280;56038;46.080;11.116;2022-09-23T21:54:33;99515.25;;;16.44;53.37
68988;BME280;56038;46.080;11.116;2022-09-23T21:59:34;99519.94;;;16.39;53.63
68988;BME280;56038;46.080;11.116;2022-09-23T22:04:36;99519.00;;;16.40;53.76
68988;BME280;56038;46.080;11.116;2022-09-23T22:09:39;99521.19;;;16.33;53.95
68988;BME280;56038;46.080;11.116;2022-09-23T22:14:41;99521.38;;;16.30;54.00
68988;BME280;56038;46.080;11.116;2022-09-23T22:19:42;99516.75;;;16.34;54.08
68988;BME280;56038;46.080;11.116;2022-09-23T22:24:47;99518.44;;;16.21;54.31
68988;BME280;56038;46.080;11.116;2022-09-23T22:29:49;99509.22;;;16.13;54.66
68988;BME280;56038;46.080;11.116;2022-09-23T22:35:10;99515.59;;;16.09;54.67
68988;BME280;56038;46.080;11.116;2022-09-23T22:40:14;99509.97;;;16.15;54.77
68988;BME280;56038;46.080;11.116;2022-09-23T22:45:16;99510.16;;;16.12;56.03
68988;BME280;56038;46.080;11.116;2022-09-23T22:50:18;99506.59;;;16.13;56.07
68988;BME280;56038;46.080;11.116;2022-09-23T22:55:21;99501.13;;;16.16;55.86
68988;BME280;56038;46.080;11.116;2022-09-23T23:00:24;99494.72;;;16.21;56.48
68988;BME280;56038;46.080;11.116;2022-09-23T23:05:30;99490.28;;;16.07;57.29
68988;BME280;56038;46.080;11.116;2022-09-23T23:10:36;99491.88;;;16.09;57.57
68988;BME280;56038;46.080;11.116;2022-09-23T23:15:38;99497.63;;;16.02;56.52
68988;BME280;56038;46.080;11.116;2022-09-23T23:20:40;99501.97;;;16.03;56.29
68988;BME280;56038;46.080;11.116;2022-09-23T23:25:43;99497.34;;;16.06;56.61
68988;BME280;56038;46.080;11.116;2022-09-23T23:30:45;99497.72;;;16.00;57.25
68988;BME280;56038;46.080;11.116;2022-09-23T23:35:49;99491.50;;;16.01;57.19
68988;BME280;56038;46.080;11.116;2022-09-23T23:40:52;99493.75;;;15.93;57.48
68988;BME280;56038;46.080;11.116;2022-09-23T23:45:56;99494.25;;;16.00;57.69
68988;BME280;56038;46.080;11.116;2022-09-23T23:51:00;99488.97;;;16.00;56.57
68988;BME280;56038;46.080;11.116;2022-09-23T23:56:05;99484.75;;;15.97;57.09
